Hack, New Jersey
Current Conditions -  °F | °C
As of 4:51 AM on Saturday 25 Oct 2014 (Local Time) from KTEB Reporting Station
Clear Clear  
Wind Chill: 50°   Ceiling: Unl
Heat Index: 50°   Visibility: 10mi
Dew Point: 36°   Wind: 3mph
Humidity: 59%   Direction: 320°NW
Pressure: 29.85"   Gusts: NA
Location:  40.8892°N, 74.0466°W
Report Text: KTEB 250851Z 32003KT 10SM CLR 10/02 A2985 RMK AO2 SLP108 T01000022 58000
Loading
Personal Weather Stations






























Interactive Weather Map
Tropical Storm Tracking
New forecast layout! Learn more

10-Day Weather Forecast

Advertisements
Track Severe Weather on mobile